Echo, UT (84024)

11:41 AM MST on February 07, 2016 (GMT -0700)
Beacon Hill | | Change Station
CLOSE
Current Station
Personal Weather Station
Location: Coalville, UT
Elevation: 5686 ft
Nearby Weather Stations

Elev 5686 ft 40.91 °N, 111.39 °W | Updated 8 seconds ago

Clear
Clear
27.7 °F
Feels Like 28 °F
N
0.2
Wind Variable Wind from West
Gusts 2.5 mph

Today
High -- | Low -- °F
--% Chance of Precip.
Yesterday
High -- | Low -- °F
Precip. -- in
Pressure 30.60 in
Visibility 10.0 miles
Clouds Clear
Windchill 28 °F
Dew Point 11 °F
Humidity 48%
Rainfall 0.00 in
Snow Depth Not available.
7:30 AM 5:49 PM
Waning Crescent, 1% visible
METAR KEVW 071753Z AUTO 22013KT 10SM CLR M02/M08 A3052 RMK AO2 SLP361 T10221078 11022 21072 51017
Pressure 30.60 in
Visibility 10.0 miles
Clouds Clear
Windchill 28 °F
Dew Point 11 °F
Humidity 48%
Rainfall 0.00 in
Snow Depth Not available.
7:30 AM 5:49 PM
Waning Crescent, 1% visible
METAR KEVW 071753Z AUTO 22013KT 10SM CLR M02/M08 A3052 RMK AO2 SLP361 T10221078 11022 21072 51017

10-Day Weather Forecast

Almanac

Astronomy

Feb. 07, 2016 Rise Set
Actual Time
Civil Twilight
Nautical Twilight
Astronomical Twilight
Moon
Length of Visible Light
Length of Day
Tomorrow will be .
, % of the Moon is Illuminated

Today's Extremes

State Highs State Lows

Community

WunderPhotos

Upload Photos

1,891,280 photos uploaded!

WunderBlog® & News

Nearby

Air Quality

  Air Quality AQ Index Pollutant
Not available.

Snow Depth

Station Depth Elevation

Earthquake Activity

City Distance Mag. Time & Date
Minimum magnitude displayed is 2.5.

Coastal Water Temperatures

Place Temperature

Stations

Nearby Weather Stations

Station Location Temp. Windchill Dew Point Humidity Wind Precip. Elev Updated Type
                   

Watches & Warnings

There are currently no watches in effect.